Flight Track Log - Related Links

Times and Time Zones

All times are in EDT time to prevent confusion due to time zone crossing. See the N662US flight status page for this flight to view local times or setup timezone preferences in your user account.

Time Position Orientation Groundspeed Altitude Reporting Facility
EDT Latitude Longitude Course Direction KTS MPH feet Rate Location/Type
Thu 06:09:00 AM 35.6813 140.2867 224° Southwest  Level Estimated
Thu 06:10:00 AM 35.5978 140.1871 224° Southwest  Level Estimated
Thu 06:11:00 AM 35.5141 140.0878 224° Southwest  Level Estimated
Thu 06:11:33 AM 35.7180 140.4090 224° Southwest 177 204 1,800  Level FlightAware ADS-B
Thu 06:11:52 AM 35.7050 140.4180 151° Southeast 180 207 2,400 1,920 Climbing FlightAware ADS-B
Thu 06:12:00 AM 35.4271 139.9848 224° Southwest  Level Estimated
Thu 06:12:23 AM 35.6800 140.4360 150° Southeast 192 221 3,400  Level FlightAware ADS-B
Thu 06:12:53 AM 35.6530 140.4560 149° Southeast 225 259 3,900 1,200 Climbing FlightAware ADS-B
Thu 06:13:23 AM 35.6240 140.4770 150° Southeast 263 303 4,600 2,073 Climbing FlightAware ADS-B
Thu 06:13:48 AM 35.5980 140.4950 151° Southeast 271 312 5,800 3,164 Climbing FlightAware ADS-B
Thu 06:14:18 AM 35.5620 140.5210 150° Southeast 276 318 7,500 2,945 Climbing FlightAware ADS-B
Thu 06:14:43 AM 35.5350 140.5410 149° Southeast 275 316 8,500 1,867 Climbing FlightAware ADS-B
Thu 06:15:03 AM 35.5180 140.5620 135° Southeast 280 322 8,900 800 Climbing FlightAware ADS-B
Thu 06:15:13 AM 35.5110 140.5770 120° Southeast 279 321 8,900  Level FlightAware ADS-B
Thu 06:15:36 AM 35.5000 140.6080 114° Southeast 280 322 8,900  Level FlightAware ADS-B
Thu 06:15:57 AM 35.4900 140.6360 114° Southeast 280 322 8,900  Level FlightAware ADS-B
Thu 06:16:37 AM 35.4730 140.6860 113° Southeast 284 327 8,900  Level FlightAware ADS-B
Thu 06:17:00 AM 35.4580 140.7260 115° Southeast 283 326 8,900 250 Level FlightAware ADS-B
Thu 06:17:49 AM 35.4300 140.8050 113° Southeast 284 327 9,200 1,281 Climbing FlightAware ADS-B
Thu 06:18:29 AM 35.4080 140.8660 114° Southeast 305 351 10,800 1,875 Climbing FlightAware ADS-B
Thu 06:19:09 AM 35.3840 140.9290 115° Southeast 346 398 11,700 1,322 Climbing FlightAware ADS-B
Thu 06:19:28 AM 35.3590 140.9560 139° Southeast 361 415 12,100 1,579 Climbing FlightAware ADS-B
Thu 06:20:06 AM 35.2910 140.9770 166° South 405 466 13,200 2,278 Climbing FlightAware ADS-B
Thu 06:20:47 AM 35.2130 140.9860 175° South 416 479 15,100 2,759 Climbing FlightAware ADS-B
Thu 06:21:33 AM 35.1210 141.0000 173° South 432 497 17,200 2,581 Climbing FlightAware ADS-B
Thu 06:22:13 AM 35.0390 141.0180 170° South 447 514 18,800 2,400 Climbing FlightAware ADS-B
Thu 06:22:53 AM 34.9670 141.0140 183° South 437 503 20,400 2,386 Climbing FlightAware ADS-B
Thu 06:23:41 AM 34.8610 140.9910 190° South 442 509 22,300 2,157 Climbing FlightAware ADS-B
Thu 06:24:22 AM 34.7820 140.9730 191° South 458 527 23,600 1,976 Climbing FlightAware ADS-B
Thu 06:25:03 AM 34.6970 140.9560 189° South 457 526 25,000 1,902 Climbing FlightAware ADS-B
Thu 06:25:44 AM 34.6110 140.9390 189° South 469 540 26,200 1,735 Climbing FlightAware ADS-B
Thu 06:26:26 AM 34.5240 140.8930 204° Southwest 460 529 27,400 1,500 Climbing FlightAware ADS-B
Thu 06:27:04 AM 34.4700 140.8210 228° Southwest 467 537 28,200 1,310 Climbing FlightAware ADS-B
Thu 06:27:53 AM 34.3960 140.7190 229° Southwest 479 551 29,300 2,093 Climbing FlightAware ADS-B
Thu 06:28:30 AM 34.3470 140.6500 229° Southwest 453 521 31,200 2,658 Climbing FlightAware ADS-B
Thu 06:29:12 AM 34.2880 140.5660 230° Southwest 449 517 32,800 2,000 Climbing FlightAware ADS-B
Thu 06:29:54 AM 34.2330 140.4860 230° Southwest 438 504 34,000 1,667 Climbing FlightAware ADS-B
Thu 06:30:42 AM 34.1740 140.3990 231° Southwest 433 498 35,300 1,412 Climbing FlightAware ADS-B
Thu 06:31:19 AM 34.1210 140.3240 230° Southwest 433 498 36,000 434 Climbing FlightAware ADS-B
Thu 06:32:05 AM 34.0620 140.2370 231° Southwest 434 499 35,900 -70 Descending FlightAware ADS-B
Thu 06:32:45 AM 34.0130 140.1680 229° Southwest 435 501 35,900  Level FlightAware ADS-B
Thu 06:33:25 AM 33.9570 140.0890 229° Southwest 437 503 35,900  Level FlightAware ADS-B
Thu 06:34:11 AM 33.8980 140.0040 230° Southwest 437 503 35,900  Level FlightAware ADS-B
Thu 06:34:51 AM 33.8450 139.9290 230° Southwest 437 503 35,900  Level FlightAware ADS-B
Thu 06:35:46 AM 33.7700 139.8230 230° Southwest 445 512 35,900  Level FlightAware ADS-B
Thu 06:36:30 AM 33.7140 139.7440 230° Southwest 447 514 35,900  Level FlightAware ADS-B
Thu 06:37:08 AM 33.6610 139.6700 229° Southwest 449 517 35,900  Level FlightAware ADS-B
Thu 06:37:51 AM 33.6010 139.5840 230° Southwest 451 519 35,900  Level FlightAware ADS-B
Thu 06:38:33 AM 33.5450 139.5060 229° Southwest 452 520 35,900  Level FlightAware ADS-B
Thu 06:39:15 AM 33.4880 139.4260 230° Southwest 452 520 35,900  Level FlightAware ADS-B
Thu 06:40:01 AM 33.4270 139.3400 230° Southwest 452 520 35,900  Level FlightAware ADS-B
Thu 06:40:42 AM 33.3720 139.2640 229° Southwest 448 516 35,900  Level FlightAware ADS-B
Thu 06:41:22 AM 33.3130 139.1820 229° Southwest 453 521 35,900  Level FlightAware ADS-B
Thu 06:42:05 AM 33.2560 139.1020 230° Southwest 448 516 35,900  Level FlightAware ADS-B
Thu 06:42:45 AM 33.2030 139.0280 229° Southwest 448 516 35,900  Level FlightAware ADS-B
Thu 06:43:30 AM 33.1380 138.9400 229° Southwest 447 514 35,900  Level FlightAware ADS-B
Thu 06:44:24 AM 33.0670 138.8410 229° Southwest 448 516 35,900  Level FlightAware ADS-B
Thu 06:45:22 AM 32.9840 138.7270 229° Southwest 451 519 35,900  Level FlightAware ADS-B
Thu 06:45:58 AM 32.9380 138.6630 229° Southwest 452 520 35,900  Level FlightAware ADS-B
Thu 06:46:42 AM 32.8730 138.5750 229° Southwest 453 521 35,900  Level FlightAware ADS-B
Thu 06:47:28 AM 32.8150 138.4950 229° Southwest 453 521 35,900  Level FlightAware ADS-B
Thu 06:48:06 AM 32.7620 138.4230 229° Southwest 452 520 35,900  Level FlightAware ADS-B
Thu 06:48:52 AM 32.6950 138.3320 229° Southwest 452 520 35,900  Level FlightAware ADS-B
Thu 06:49:32 AM 32.6400 138.2590 228° Southwest 451 519 35,900  Level FlightAware ADS-B
Thu 06:50:10 AM 32.5860 138.1850 229° Southwest 452 520 35,900  Level FlightAware ADS-B
Thu 06:50:57 AM 32.5190 138.0940 229° Southwest 453 521 35,900  Level FlightAware ADS-B
Thu 06:51:41 AM 32.4610 138.0150 229° Southwest 452 520 35,900  Level FlightAware ADS-B
Thu 06:52:55 AM 32.3650 137.8850 229° Southwest 452 520 35,900  Level FlightAware ADS-B
Thu 06:53:30 AM 32.3030 137.8030 228° Southwest 452 520 35,900  Level FlightAware ADS-B
Thu 06:54:29 AM 32.2200 137.6920 229° Southwest 458 527 35,900  Level FlightAware ADS-B
Thu 06:55:07 AM 32.1670 137.6230 228° Southwest 456 525 35,900  Level FlightAware ADS-B
Thu 06:56:07 AM 32.0840 137.5110 229° Southwest 449 517 35,900  Level FlightAware ADS-B
Thu 06:56:52 AM 32.0240 137.4310 229° Southwest 447 514 35,900  Level FlightAware ADS-B
Thu 06:57:35 AM 31.9720 137.3610 229° Southwest 447 514 35,900  Level FlightAware ADS-B
Thu 06:58:11 AM 31.9310 137.3050 229° Southwest 447 514 35,900  Level FlightAware ADS-B
Thu 06:58:52 AM 31.8630 137.2170 228° Southwest 445 512 35,900  Level FlightAware ADS-B
Thu 06:59:40 AM 31.8080 137.1430 229° Southwest 445 512 35,900  Level FlightAware ADS-B
Thu 07:00:17 AM 31.7660 137.0850 230° Southwest 445 512 35,900  Level FlightAware ADS-B
Thu 07:01:04 AM 31.7120 137.0120 229° Southwest 445 512 35,900  Level FlightAware ADS-B
Thu 07:01:40 AM 31.6700 136.9560 229° Southwest 445 512 35,900  Level FlightAware ADS-B
Thu 07:02:29 AM 31.6140 136.8800 229° Southwest 445 512 35,900  Level FlightAware ADS-B
Thu 07:03:06 AM 31.5720 136.8230 229° Southwest 445 512 35,900  Level FlightAware ADS-B
Thu 07:03:54 AM 31.5170 136.7490 229° Southwest 445 512 35,900  Level FlightAware ADS-B
Thu 07:04:28 AM 31.4780 136.6960 229° Southwest 445 512 35,900  Level FlightAware ADS-B
Thu 07:05:24 AM 31.4130 136.6090 229° Southwest 445 512 35,900  Level FlightAware ADS-B
Thu 07:06:11 AM 31.3590 136.5360 229° Southwest 445 512 35,900  Level FlightAware ADS-B
Thu 07:06:47 AM 31.3180 136.4810 229° Southwest 445 512 35,900  Level FlightAware ADS-B
Thu 07:07:36 AM 31.2620 136.4050 229° Southwest 445 512 35,900  Level FlightAware ADS-B
Thu 07:08:10 AM 31.2230 136.3530 229° Southwest 445 512 35,900 -14 Level FlightAware ADS-B
Thu 07:10:00 AM 31.0621 136.1749 224° Southwest  Level Estimated
Thu 07:11:00 AM 30.9723 136.0758 223° Southwest  Level Estimated
Thu 07:12:00 AM 30.8824 135.9769 223° Southwest  Level Estimated
Thu 07:13:00 AM 30.7924 135.8782 223° Southwest  Level Estimated
Thu 07:14:00 AM 30.7024 135.7797 223° Southwest  Level Estimated
Thu 07:15:00 AM 30.6122 135.6814 223° Southwest  Level Estimated
Thu 07:16:00 AM 30.5220 135.5832 223° Southwest  Level Estimated
Thu 07:17:00 AM 30.4317 135.4853 223° Southwest  Level Estimated
Thu 07:18:00 AM 30.3414 135.3875 223° Southwest  Level Estimated
Thu 07:19:00 AM 30.2510 135.2899 223° Southwest  Level Estimated
Thu 07:20:00 AM 30.1605 135.1924 223° Southwest  Level Estimated
Thu 07:21:00 AM 30.0699 135.0952 223° Southwest  Level Estimated
Thu 07:22:00 AM 29.9793 134.9981 223° Southwest  Level Estimated
Thu 07:23:00 AM 29.8886 134.9012 223° Southwest  Level Estimated
Thu 07:24:00 AM 29.7978 134.8045 223° Southwest  Level Estimated
Thu 07:25:00 AM 29.7069 134.7080 223° Southwest  Level Estimated
Thu 07:26:00 AM 29.6160 134.6116 223° Southwest  Level Estimated
Thu 07:27:00 AM 29.5250 134.5154 223° Southwest  Level Estimated
Thu 07:28:00 AM 29.4340 134.4194 223° Southwest  Level Estimated
Thu 07:29:00 AM 29.3428 134.3235 223° Southwest  Level Estimated
Thu 07:30:00 AM 29.2516 134.2279 222° Southwest  Level Estimated
Thu 07:31:00 AM 29.1604 134.1324 222° Southwest  Level Estimated
Thu 07:32:00 AM 29.0690 134.0370 222° Southwest  Level Estimated
Thu 07:33:00 AM 28.9776 133.9418 222° Southwest  Level Estimated
Thu 07:34:00 AM 28.8862 133.8468 222° Southwest  Level Estimated
Thu 07:35:00 AM 28.7946 133.7520 222° Southwest  Level Estimated
Thu 07:36:00 AM 28.7030 133.6573 222° Southwest  Level Estimated
Thu 07:37:00 AM 28.6114 133.5628 222° Southwest  Level Estimated
Thu 07:38:00 AM 28.5196 133.4685 222° Southwest  Level Estimated
Thu 07:39:00 AM 28.4279 133.3743 222° Southwest  Level Estimated
Thu 07:40:00 AM 28.3360 133.2803 222° Southwest  Level Estimated
Thu 07:41:00 AM 28.2441 133.1865 222° Southwest  Level Estimated
Thu 07:42:00 AM 28.1521 133.0928 222° Southwest  Level Estimated
Thu 07:43:00 AM 28.0600 132.9993 222° Southwest  Level Estimated
Thu 07:44:00 AM 27.9679 132.9059 222° Southwest  Level Estimated
Thu 07:45:00 AM 27.8757 132.8127 222° Southwest  Level Estimated
Thu 07:46:00 AM 27.7859 132.7221 222° Southwest  Level Estimated
Thu 07:47:00 AM 27.6961 132.6317 222° Southwest  Level Estimated
Thu 07:48:00 AM 27.6061 132.5414 222° Southwest  Level Estimated
Thu 07:49:00 AM 27.5161 132.4512 222° Southwest  Level Estimated
Thu 07:50:00 AM 27.4261 132.3612 222° Southwest  Level Estimated
Thu 07:51:00 AM 27.3360 132.2714 222° Southwest  Level Estimated
Thu 07:52:00 AM 27.2458 132.1817 222° Southwest  Level Estimated
Thu 07:53:00 AM 27.1556 132.0921 221° Southwest  Level Estimated
Thu 07:54:00 AM 27.0653 132.0027 221° Southwest  Level Estimated
Thu 07:55:00 AM 26.9750 131.9134 221° Southwest  Level Estimated
Thu 07:56:00 AM 26.8846 131.8243 221° Southwest  Level Estimated
Thu 07:57:00 AM 26.7942 131.7353 221° Southwest  Level Estimated
Thu 07:58:00 AM 26.7037 131.6464 221° Southwest  Level Estimated
Thu 07:59:00 AM 26.6131 131.5577 221° Southwest  Level Estimated
Thu 08:00:00 AM 26.5225 131.4691 221° Southwest  Level Estimated
Thu 08:01:00 AM 26.4319 131.3807 221° Southwest  Level Estimated
Thu 08:02:00 AM 26.3412 131.2924 221° Southwest  Level Estimated
Thu 08:03:00 AM 26.2504 131.2043 221° Southwest  Level Estimated
Thu 08:04:00 AM 26.1595 131.1163 221° Southwest  Level Estimated
Thu 08:05:00 AM 26.0687 131.0284 221° Southwest  Level Estimated
Thu 08:06:00 AM 25.9777 130.9406 221° Southwest  Level Estimated
Thu 08:07:00 AM 25.8868 130.8530 221° Southwest  Level Estimated
Thu 08:08:00 AM 25.7957 130.7656 221° Southwest  Level Estimated
Thu 08:09:00 AM 25.7046 130.6782 221° Southwest  Level Estimated
Thu 08:10:00 AM 25.6135 130.5910 221° Southwest  Level Estimated
Thu 08:11:00 AM 25.5223 130.5040 221° Southwest  Level Estimated
Thu 08:12:00 AM 25.4311 130.4170 221° Southwest  Level Estimated
Thu 08:13:00 AM 25.3398 130.3302 221° Southwest  Level Estimated
Thu 08:14:00 AM 25.2484 130.2435 221° Southwest  Level Estimated
Thu 08:15:00 AM 25.1570 130.1570 221° Southwest  Level Estimated
Thu 08:16:00 AM 25.0656 130.0706 221° Southwest  Level Estimated
Thu 08:17:00 AM 24.9741 129.9843 221° Southwest  Level Estimated
Thu 08:18:00 AM 24.8825 129.8982 220° Southwest  Level Estimated
Thu 08:19:00 AM 24.7909 129.8121 220° Southwest  Level Estimated
Thu 08:20:00 AM 24.6993 129.7262 220° Southwest  Level Estimated
Thu 08:21:00 AM 24.6076 129.6405 220° Southwest  Level Estimated
Thu 08:22:00 AM 24.5158 129.5548 220° Southwest  Level Estimated
Thu 08:23:00 AM 24.4240 129.4693 220° Southwest  Level Estimated
Thu 08:24:00 AM 24.3322 129.3839 220° Southwest  Level Estimated
Thu 08:25:00 AM 24.2403 129.2986 220° Southwest  Level Estimated
Thu 08:26:00 AM 24.1484 129.2135 220° Southwest  Level Estimated
Thu 08:27:00 AM 24.0564 129.1284 220° Southwest  Level Estimated
Thu 08:28:00 AM 23.9644 129.0435 220° Southwest  Level Estimated
Thu 08:29:00 AM 23.8723 128.9587 220° Southwest  Level Estimated
Thu 08:30:00 AM 23.7802 128.8741 220° Southwest  Level Estimated
Thu 08:31:00 AM 23.6880 128.7895 220° Southwest  Level Estimated
Thu 08:32:00 AM 23.5958 128.7051 220° Southwest  Level Estimated
Thu 08:33:00 AM 23.5035 128.6208 220° Southwest  Level Estimated
Thu 08:34:00 AM 23.4112 128.5366 220° Southwest  Level Estimated
Thu 08:35:00 AM 23.3189 128.4525 220° Southwest  Level Estimated
Thu 08:36:00 AM 23.2265 128.3685 220° Southwest  Level Estimated
Thu 08:37:00 AM 23.1341 128.2847 220° Southwest  Level Estimated
Thu 08:38:00 AM 23.0416 128.2010 220° Southwest  Level Estimated
Thu 08:39:00 AM 22.9491 128.1174 220° Southwest  Level Estimated
Thu 08:40:00 AM 22.8565 128.0339 220° Southwest  Level Estimated
Thu 08:41:00 AM 22.7639 127.9505 220° Southwest  Level Estimated
Thu 08:42:00 AM 22.6712 127.8672 220° Southwest  Level Estimated
Thu 08:43:00 AM 22.5785 127.7840 220° Southwest  Level Estimated
Thu 08:44:00 AM 22.4858 127.7010 220° Southwest  Level Estimated
Thu 08:45:00 AM 22.3930 127.6181 220° Southwest  Level Estimated
Thu 08:46:00 AM 22.3002 127.5352 220° Southwest  Level Estimated
Thu 08:47:00 AM 22.2073 127.4525 220° Southwest  Level Estimated
Thu 08:48:00 AM 22.1144 127.3699 219° Southwest  Level Estimated
Thu 08:49:00 AM 22.0214 127.2874 219° Southwest  Level Estimated
Thu 08:50:00 AM 21.9284 127.2050 219° Southwest  Level Estimated
Thu 08:51:00 AM 21.8358 127.1231 219° Southwest  Level Estimated
Thu 08:52:00 AM 21.7432 127.0413 219° Southwest  Level Estimated
Thu 08:53:00 AM 21.6504 126.9596 219° Southwest  Level Estimated
Thu 08:54:00 AM 21.5577 126.8780 219° Southwest  Level Estimated
Thu 08:55:00 AM 21.4649 126.7965 219° Southwest  Level Estimated
Thu 08:56:00 AM 21.3721 126.7151 219° Southwest  Level Estimated
Thu 08:57:00 AM 21.2792 126.6338 219° Southwest  Level Estimated
Thu 08:58:00 AM 21.1863 126.5526 219° Southwest  Level Estimated
Thu 08:59:00 AM 21.0933 126.4715 219° Southwest  Level Estimated
Thu 09:00:00 AM 21.0004 126.3905 219° Southwest  Level Estimated
Thu 09:01:00 AM 20.9074 126.3097 219° Southwest  Level Estimated
Thu 09:02:00 AM 20.8143 126.2289 219° Southwest  Level Estimated
Thu 09:03:00 AM 20.7212 126.1482 219° Southwest  Level Estimated
Thu 09:04:00 AM 20.6281 126.0676 219° Southwest  Level Estimated
Thu 09:05:00 AM 20.5349 125.9871 219° Southwest  Level Estimated
Thu 09:06:00 AM 20.4417 125.9067 219° Southwest  Level Estimated
Thu 09:07:00 AM 20.3484 125.8264 219° Southwest  Level Estimated
Thu 09:08:00 AM 20.2551 125.7462 219° Southwest  Level Estimated
Thu 09:09:00 AM 20.1618 125.6661 219° Southwest  Level Estimated
Thu 09:10:00 AM 20.0685 125.5861 219° Southwest  Level Estimated
Thu 09:11:00 AM 19.9751 125.5062 219° Southwest  Level Estimated
Thu 09:12:00 AM 19.8817 125.4264 219° Southwest  Level Estimated
Thu 09:13:00 AM 19.7882 125.3467 219° Southwest  Level Estimated
Thu 09:14:00 AM 19.6947 125.2671 219° Southwest  Level Estimated
Thu 09:15:00 AM 19.6012 125.1875 219° Southwest  Level Estimated
Thu 09:16:00 AM 19.5076 125.1081 219° Southwest  Level Estimated
Thu 09:17:00 AM 19.4140 125.0287 219° Southwest  Level Estimated
Thu 09:18:00 AM 19.3204 124.9495 219° Southwest  Level Estimated
Thu 09:19:00 AM 19.2267 124.8703 219° Southwest  Level Estimated
Thu 09:20:00 AM 19.1330 124.7912 219° Southwest  Level Estimated
Thu 09:21:00 AM 19.0384 124.7115 219° Southwest  Level Estimated
Thu 09:22:00 AM 18.9438 124.6320 219° Southwest  Level Estimated
Thu 09:23:00 AM 18.8492 124.5525 218° Southwest  Level Estimated
Thu 09:24:00 AM 18.7545 124.4730 218° Southwest  Level Estimated
Thu 09:25:00 AM 18.6598 124.3937 218° Southwest  Level Estimated
Thu 09:26:00 AM 18.5651 124.3145 218° Southwest  Level Estimated
Thu 09:27:00 AM 18.4703 124.2353 218° Southwest  Level Estimated
Thu 09:28:00 AM 18.3755 124.1563 218° Southwest  Level Estimated
Thu 09:29:00 AM 18.2807 124.0773 218° Southwest  Level Estimated
Thu 09:30:00 AM 18.1858 123.9984 218° Southwest  Level Estimated
Thu 09:31:00 AM 18.0909 123.9196 218° Southwest  Level Estimated
Thu 09:32:00 AM 17.9960 123.8409 218° Southwest  Level Estimated
Thu 09:32:39 AM 15.8330 123.2090 218° Southwest 506 582 33,900  Level FlightAware ADS-B
Thu 09:33:00 AM 17.9010 123.7623 218° Southwest  Level Estimated
Thu 09:33:34 AM 15.7290 123.1280 217° Southwest 506 582 33,900  Level FlightAware ADS-B
Thu 09:34:29 AM 15.6480 123.0590 219° Southwest 507 583 33,900  Level FlightAware ADS-B
Thu 09:35:40 AM 15.5470 122.8920 238° Southwest 509 586 33,900  Level FlightAware ADS-B
Thu 09:36:20 AM 15.5030 122.8110 241° Southwest 507 583 33,900  Level FlightAware ADS-B
Thu 09:37:01 AM 15.4540 122.7240 240° Southwest 507 583 33,900 -296 Level FlightAware ADS-B
Thu 09:37:41 AM 15.4060 122.6370 240° Southwest 494 568 33,500 -847 Descending FlightAware ADS-B
Thu 09:38:26 AM 15.3560 122.5450 241° Southwest 484 557 32,700 -578 Descending FlightAware ADS-B
Thu 09:39:04 AM 15.3200 122.4800 240° Southwest 484 557 32,700 -1,071 Level FlightAware ADS-B
Thu 09:39:50 AM 15.2640 122.3780 240° Southwest 472 543 31,200 -1,085 Descending FlightAware ADS-B
Thu 09:40:38 AM 15.2170 122.2940 240° Southwest 472 543 31,000 -141 Descending FlightAware ADS-B
Thu 09:41:15 AM 15.1830 122.2320 240° Southwest 472 543 31,000 -1,769 Level FlightAware ADS-B
Thu 09:41:56 AM 15.1270 122.1320 240° Southwest 464 534 28,700 -3,108 Descending FlightAware ADS-B
Thu 09:42:38 AM 15.0820 122.0510 240° Southwest 470 541 26,700 -2,019 Descending FlightAware ADS-B
Thu 09:43:40 AM 15.0210 121.9400 240° Southwest 477 549 25,200 -918 Descending FlightAware ADS-B
Thu 09:44:16 AM 14.9870 121.8800 240° Southwest 477 549 25,200 -4,065 Level FlightAware ADS-B
Thu 09:45:13 AM 14.9080 121.7640 235° Southwest 445 512 18,900 -5,258 Descending FlightAware ADS-B
Thu 09:45:53 AM 14.8760 121.6850 247° West 445 512 16,700 -2,682 Descending FlightAware ADS-B
Thu 09:46:38 AM 14.8430 121.6210 242° Southwest 437 503 15,100 -2,415 Descending FlightAware ADS-B
Thu 09:47:15 AM 14.8070 121.5540 241° Southwest 427 491 13,400 -2,195 Descending FlightAware ADS-B
Thu 09:48:00 AM 14.7600 121.4700 240° Southwest 395 455 12,100 -1,618 Descending FlightAware ADS-B
Thu 09:48:44 AM 14.7160 121.3910 240° Southwest 364 419 11,000 -1,432 Descending FlightAware ADS-B
Thu 09:49:28 AM 14.6800 121.3280 239° Southwest 334 384 10,000 -1,385 Descending FlightAware ADS-B
Thu 09:49:49 AM 14.6630 121.2980 240° Southwest 319 367 9,500 -646 Descending FlightAware ADS-B
Thu 09:50:33 AM 14.6360 121.2500 240° Southwest 310 357 9,300 -971 Descending FlightAware ADS-B
Thu 09:50:57 AM 14.6430 121.2070 280° West 285 328 8,400 -1,565 Descending FlightAware ADS-B
Thu 09:51:19 AM 14.6420 121.1770 268° West 277 319 8,100 -766 Descending FlightAware ADS-B
Thu 09:51:44 AM 14.6400 121.1490 266° West 264 304 7,800 -985 Descending FlightAware ADS-B
Thu 09:52:26 AM 14.6380 121.0960 268° West 239 275 7,000 -1,254 Descending FlightAware ADS-B
Thu 09:52:51 AM 14.6360 121.0670 266° West 235 270 6,400 -982 Descending FlightAware ADS-B
Thu 09:53:21 AM 14.6340 121.0340 266° West 234 269 6,100 -310 Descending FlightAware ADS-B
Thu 09:53:49 AM 14.6330 121.0070 268° West 234 269 6,100 -141 Level FlightAware ADS-B
Thu 09:54:46 AM 14.6080 120.9450 247° West 230 265 5,900 -146 Descending FlightAware ADS-B
Thu 09:55:11 AM 14.5960 120.9250 238° Southwest 230 265 5,900 -1,385 Level FlightAware ADS-B
Thu 09:55:38 AM 14.5790 120.8960 239° Southwest 223 257 4,700 -1,029 Descending FlightAware ADS-B
Thu 09:56:56 AM 14.5440 120.8360 239° Southwest 214 246 4,100 -319 Descending FlightAware ADS-B
Thu 09:57:31 AM 14.5210 120.7950 240° Southwest 216 249 4,100  Level FlightAware ADS-B
Thu 09:58:19 AM 14.4970 120.7570 237° Southwest 214 246 4,100  Level FlightAware ADS-B
Thu 09:58:28 AM 14.4840 120.7660 146° Southeast 212 244 4,100  Level FlightAware ADS-B
Thu 09:58:53 AM 14.4530 120.7670 178° South 212 244 4,100 -411 Level FlightAware ADS-B
Thu 09:59:41 AM 14.4090 120.7780 166° South 204 235 3,600 -659 Descending FlightAware ADS-B
Thu 10:00:24 AM 14.4030 120.8080 102° East 204 235 3,100 -333 Descending FlightAware ADS-B
Thu 10:00:53 AM 14.4190 120.8420 64° Northeast 198 228 3,200 -440 Climbing FlightAware ADS-B
Thu 10:02:13 AM 14.4470 120.9010 64° Northeast 152 175 2,300 -505 Descending FlightAware ADS-B
Thu 10:02:40 AM 14.4540 120.9160 64° Northeast 152 175 2,300 -228 Level FlightAware ADS-B
Thu 10:04:51 AM 14.4610 120.9280 59° Northeast 149 171 1,700 -229 Descending FlightAware ADS-B
Thu 10:05:17 AM 14.4690 120.9420 59° Northeast 149 171 1,700  Level FlightAware ADS-B

Login

Don't have an account? Register now (free) for customized features, flight alerts, and more!